createdAt,value
2022-12-29T00:00:56.231Z,6.20
2022-12-29T00:03:43.779Z,6.20
2022-12-29T00:06:31.157Z,6.20
2022-12-29T00:09:18.425Z,6.30
2022-12-29T00:12:06.588Z,6.40
2022-12-29T00:15:11.426Z,6.40
2022-12-29T00:17:59.950Z,6.40
2022-12-29T00:21:04.609Z,6.40
2022-12-29T00:24:09.455Z,6.40
2022-12-29T00:27:16.106Z,6.40
2022-12-29T00:30:21.189Z,6.40
2022-12-29T00:33:31.412Z,6.30
2022-12-29T00:36:20.573Z,6.30
2022-12-29T00:39:26.995Z,6.40
2022-12-29T00:42:32.013Z,6.40
2022-12-29T00:45:19.142Z,6.40
2022-12-29T00:48:08.561Z,6.40
2022-12-29T00:50:58.005Z,6.40
2022-12-29T00:53:45.411Z,6.40
2022-12-29T00:56:32.900Z,6.40
2022-12-29T00:59:21.569Z,6.50
2022-12-29T01:02:09.445Z,6.40
2022-12-29T01:04:56.874Z,6.50
2022-12-29T01:07:45.643Z,6.40
2022-12-29T01:10:31.633Z,6.50
2022-12-29T01:13:19.444Z,6.50
2022-12-29T01:16:07.100Z,6.50
2022-12-29T01:18:55.630Z,6.50
2022-12-29T01:21:42.901Z,6.50
2022-12-29T01:24:31.679Z,6.50
2022-12-29T01:27:19.227Z,6.50
2022-12-29T01:30:06.952Z,6.50
2022-12-29T01:32:54.319Z,6.60
2022-12-29T01:35:41.930Z,6.50
2022-12-29T01:38:29.354Z,6.50
2022-12-29T01:41:18.314Z,6.60
2022-12-29T01:44:20.628Z,6.60
2022-12-29T01:47:09.896Z,6.60
2022-12-29T01:49:58.818Z,6.50
2022-12-29T01:52:48.782Z,6.40
2022-12-29T01:55:38.110Z,6.40
2022-12-29T01:58:28.939Z,6.30
2022-12-29T02:01:17.082Z,6.20
2022-12-29T02:04:05.500Z,6.20
2022-12-29T02:06:55.443Z,6.20
2022-12-29T02:09:43.327Z,6.30
2022-12-29T02:12:30.587Z,6.30
2022-12-29T02:15:19.407Z,6.20
2022-12-29T02:18:15.339Z,6.10
2022-12-29T02:21:16.804Z,6.20
2022-12-29T02:24:21.903Z,6.10
2022-12-29T02:27:26.370Z,6.00
2022-12-29T02:30:28.368Z,6.00
2022-12-29T02:33:33.329Z,5.90
2022-12-29T02:36:27.011Z,5.90
2022-12-29T02:39:16.697Z,5.80
2022-12-29T02:42:09.056Z,5.80
2022-12-29T02:44:58.921Z,5.80
2022-12-29T02:47:50.672Z,5.80
2022-12-29T02:50:40.879Z,5.70
2022-12-29T02:54:02.680Z,5.70
2022-12-29T02:56:50.591Z,5.60
2022-12-29T02:59:38.014Z,5.60
2022-12-29T03:02:32.579Z,5.60
2022-12-29T03:05:24.622Z,5.60
2022-12-29T03:08:15.895Z,5.60
2022-12-29T03:11:05.691Z,5.60
2022-12-29T03:14:12.250Z,5.70
2022-12-29T03:17:02.425Z,5.70
2022-12-29T03:19:51.817Z,5.80
2022-12-29T03:22:45.083Z,5.90
2022-12-29T03:25:37.798Z,5.90
2022-12-29T03:28:31.776Z,6.00
2022-12-29T03:31:19.826Z,6.00
2022-12-29T03:34:09.173Z,6.00
2022-12-29T03:36:58.194Z,6.00
2022-12-29T03:39:45.777Z,6.10
2022-12-29T03:42:34.525Z,6.10
2022-12-29T03:45:23.851Z,6.10
2022-12-29T03:48:10.944Z,6.10
2022-12-29T03:51:01.529Z,6.10
2022-12-29T03:53:49.027Z,6.00
2022-12-29T03:56:36.436Z,6.00
2022-12-29T03:59:24.581Z,6.00
2022-12-29T04:02:13.572Z,5.90
2022-12-29T04:05:02.735Z,6.00
2022-12-29T04:07:50.185Z,6.00
2022-12-29T04:10:37.643Z,6.00
2022-12-29T04:13:26.403Z,5.90
2022-12-29T04:16:13.825Z,5.90
2022-12-29T04:19:02.793Z,5.90
2022-12-29T04:21:49.942Z,5.90
2022-12-29T04:24:37.982Z,5.90
2022-12-29T04:27:25.347Z,5.90
2022-12-29T04:30:30.841Z,6.00
2022-12-29T04:33:27.090Z,6.00
2022-12-29T04:36:15.766Z,6.00
2022-12-29T04:39:06.244Z,6.00
2022-12-29T04:41:54.139Z,6.10
2022-12-29T04:44:45.195Z,6.10
2022-12-29T04:47:43.167Z,6.10
2022-12-29T04:50:49.756Z,6.10
2022-12-29T04:53:44.595Z,6.20
2022-12-29T04:56:31.515Z,6.20
2022-12-29T04:59:18.996Z,6.20
2022-12-29T05:02:09.683Z,6.20
2022-12-29T05:04:57.252Z,6.20
2022-12-29T05:07:44.845Z,6.30
2022-12-29T05:10:33.450Z,6.30
2022-12-29T05:13:25.180Z,6.30
2022-12-29T05:16:12.568Z,6.30
2022-12-29T05:19:00.105Z,6.40
2022-12-29T05:21:47.461Z,6.40
2022-12-29T05:24:34.975Z,6.40
2022-12-29T05:27:23.758Z,6.50
2022-12-29T05:30:29.914Z,6.60
2022-12-29T05:33:18.602Z,6.60
2022-12-29T05:36:06.473Z,6.60
2022-12-29T05:38:54.428Z,6.60
2022-12-29T05:41:41.852Z,6.60
2022-12-29T05:44:51.098Z,6.60
2022-12-29T05:47:52.881Z,6.50
2022-12-29T05:50:58.848Z,6.50
2022-12-29T05:53:56.451Z,6.60
2022-12-29T05:56:43.827Z,6.60
2022-12-29T05:59:31.160Z,6.70
2022-12-29T06:02:20.237Z,6.70
2022-12-29T06:05:09.043Z,6.80
2022-12-29T06:07:57.615Z,6.90
2022-12-29T06:10:45.951Z,7.00
2022-12-29T06:13:33.206Z,7.10
2022-12-29T06:16:20.980Z,7.20
2022-12-29T06:19:12.087Z,7.20
2022-12-29T06:21:59.243Z,7.20
2022-12-29T06:24:46.526Z,7.20
2022-12-29T06:27:34.332Z,7.30
2022-12-29T06:30:21.584Z,7.30
2022-12-29T06:33:09.543Z,7.30
2022-12-29T06:35:58.226Z,7.30
2022-12-29T06:38:45.631Z,7.30
2022-12-29T06:41:33.706Z,7.30
2022-12-29T06:44:39.319Z,7.30
2022-12-29T06:47:30.326Z,7.30
2022-12-29T06:50:17.757Z,7.30
2022-12-29T06:53:06.358Z,7.30
2022-12-29T06:55:53.499Z,7.30
2022-12-29T06:58:40.686Z,7.40
2022-12-29T07:01:28.118Z,7.40
2022-12-29T07:04:15.783Z,7.40
2022-12-29T07:07:02.904Z,7.40
2022-12-29T07:09:51.720Z,7.40
2022-12-29T07:12:38.833Z,7.40
2022-12-29T07:15:26.204Z,7.30
2022-12-29T07:18:13.554Z,7.30
2022-12-29T07:21:01.384Z,7.30
2022-12-29T07:23:48.851Z,7.30
2022-12-29T07:26:38.047Z,7.30
2022-12-29T07:29:25.427Z,7.30
2022-12-29T07:32:12.486Z,7.40
2022-12-29T07:34:59.896Z,7.40
2022-12-29T07:37:47.292Z,7.40
2022-12-29T07:40:34.519Z,7.30
2022-12-29T07:43:23.497Z,7.40
2022-12-29T07:46:56.003Z,7.40
2022-12-29T07:49:37.507Z,7.40
2022-12-29T07:52:24.993Z,7.50
2022-12-29T07:55:12.500Z,7.50
2022-12-29T07:57:59.640Z,7.50
2022-12-29T08:00:48.478Z,7.50
2022-12-29T08:03:35.882Z,7.50
2022-12-29T08:06:23.340Z,7.50
2022-12-29T08:09:16.421Z,7.60
2022-12-29T08:12:06.945Z,7.60
2022-12-29T08:14:53.911Z,7.70
2022-12-29T08:17:43.121Z,7.80
2022-12-29T08:20:30.635Z,7.90
2022-12-29T08:23:18.134Z,7.90
2022-12-29T08:26:06.204Z,8.00
2022-12-29T08:28:54.309Z,8.00
2022-12-29T08:31:41.607Z,8.10
2022-12-29T08:34:30.429Z,8.20
2022-12-29T08:37:17.589Z,8.20
2022-12-29T08:40:05.659Z,8.20
2022-12-29T08:42:52.653Z,8.30
2022-12-29T08:45:39.997Z,8.30
2022-12-29T08:48:27.431Z,8.40
2022-12-29T08:51:20.145Z,8.50
2022-12-29T08:54:10.128Z,8.60
2022-12-29T08:56:57.769Z,8.60
2022-12-29T08:59:53.220Z,8.70
2022-12-29T09:02:40.444Z,8.70
2022-12-29T09:05:28.089Z,8.80
2022-12-29T09:08:20.952Z,8.80
2022-12-29T09:11:14.075Z,8.80
2022-12-29T09:14:01.489Z,8.90
2022-12-29T09:17:06.310Z,8.90
2022-12-29T09:19:53.824Z,8.90
2022-12-29T09:22:40.789Z,9.00
2022-12-29T09:25:29.414Z,9.00
2022-12-29T09:28:16.922Z,9.10
2022-12-29T09:31:04.873Z,9.10
2022-12-29T09:33:52.235Z,9.20
2022-12-29T09:36:39.598Z,9.30
2022-12-29T09:39:26.972Z,9.30
2022-12-29T09:42:18.890Z,9.40
2022-12-29T09:45:10.971Z,9.40
2022-12-29T09:47:58.518Z,9.50
2022-12-29T09:50:47.820Z,9.50
2022-12-29T09:53:39.320Z,9.60
2022-12-29T09:56:27.279Z,9.60
2022-12-29T09:59:17.937Z,9.60
2022-12-29T10:02:09.080Z,9.70
2022-12-29T10:04:56.609Z,9.70
2022-12-29T10:07:47.691Z,9.80
2022-12-29T10:10:38.346Z,9.80
2022-12-29T10:13:29.829Z,9.80
2022-12-29T10:16:26.667Z,9.80
2022-12-29T10:19:35.275Z,9.80
2022-12-29T10:22:27.412Z,9.90
2022-12-29T10:25:20.674Z,9.90
2022-12-29T10:28:11.796Z,9.90
2022-12-29T10:31:06.709Z,10.00
2022-12-29T10:33:59.621Z,10.00
2022-12-29T10:36:49.860Z,10.10
2022-12-29T10:39:40.304Z,10.10
2022-12-29T10:42:29.131Z,10.20
2022-12-29T10:45:17.637Z,10.20
2022-12-29T10:48:06.946Z,10.20
2022-12-29T10:51:01.762Z,10.20
2022-12-29T10:53:51.848Z,10.20
2022-12-29T10:56:45.363Z,10.20
2022-12-29T10:59:33.618Z,10.10
2022-12-29T11:02:27.758Z,10.10
2022-12-29T11:05:20.776Z,10.10
2022-12-29T11:08:12.856Z,10.20
2022-12-29T11:11:02.147Z,10.20
2022-12-29T11:13:50.901Z,10.30
2022-12-29T11:16:38.354Z,10.50
2022-12-29T11:19:27.163Z,10.60
2022-12-29T11:22:16.071Z,10.90
2022-12-29T11:25:12.582Z,11.10
2022-12-29T11:28:01.687Z,11.20
2022-12-29T11:31:00.877Z,11.30
2022-12-29T11:33:47.974Z,11.40
2022-12-29T11:36:35.981Z,11.50
2022-12-29T11:39:28.319Z,11.60
2022-12-29T11:42:18.384Z,11.60
2022-12-29T11:45:10.880Z,11.60
2022-12-29T11:47:59.982Z,11.60
2022-12-29T11:50:52.314Z,11.60
2022-12-29T11:53:40.984Z,11.70
2022-12-29T11:56:41.298Z,11.70
2022-12-29T11:59:47.065Z,11.70
2022-12-29T12:02:44.568Z,11.70
2022-12-29T12:05:37.712Z,11.70
2022-12-29T12:08:30.728Z,11.70
2022-12-29T12:11:19.674Z,11.60
2022-12-29T12:14:09.294Z,11.60
2022-12-29T12:17:18.346Z,11.50
2022-12-29T12:20:12.582Z,11.40
2022-12-29T12:23:09.610Z,11.40
2022-12-29T12:25:59.763Z,11.30
2022-12-29T12:28:50.603Z,11.20
2022-12-29T12:31:45.257Z,11.20
2022-12-29T12:34:36.084Z,11.10
2022-12-29T12:37:47.519Z,11.00
2022-12-29T12:40:45.932Z,10.90
2022-12-29T12:43:38.771Z,10.80
2022-12-29T12:46:41.149Z,10.80
2022-12-29T12:49:43.122Z,10.80
2022-12-29T12:52:35.405Z,10.80
2022-12-29T12:55:43.799Z,10.70
2022-12-29T12:58:35.715Z,10.70
2022-12-29T13:01:30.280Z,10.70
2022-12-29T13:04:29.046Z,10.60
2022-12-29T13:07:22.956Z,10.60
2022-12-29T13:10:30.735Z,10.60
2022-12-29T13:13:35.647Z,10.70
2022-12-29T13:16:27.692Z,10.70
2022-12-29T13:19:18.312Z,10.80
2022-12-29T13:22:09.358Z,10.70
2022-12-29T13:25:04.670Z,10.80
2022-12-29T13:27:55.219Z,10.80
2022-12-29T13:30:46.604Z,10.70
2022-12-29T13:33:41.065Z,10.70
2022-12-29T13:36:30.529Z,10.80
2022-12-29T13:39:21.117Z,10.80
2022-12-29T13:42:09.033Z,10.90
2022-12-29T13:44:59.979Z,10.80
2022-12-29T13:47:51.419Z,10.80
2022-12-29T13:50:41.696Z,11.10
2022-12-29T13:53:36.160Z,11.30
2022-12-29T13:56:26.575Z,11.40
2022-12-29T13:59:18.189Z,11.50
2022-12-29T14:02:10.703Z,11.50
2022-12-29T14:04:59.254Z,11.40
2022-12-29T14:07:47.727Z,11.40
2022-12-29T14:10:36.402Z,11.30
2022-12-29T14:13:24.344Z,11.30
2022-12-29T14:16:23.211Z,11.30
2022-12-29T14:19:17.042Z,11.10
2022-12-29T14:22:05.185Z,11.10
2022-12-29T14:24:53.837Z,11.00
2022-12-29T14:27:54.805Z,10.80
2022-12-29T14:30:49.834Z,10.70
2022-12-29T14:33:36.833Z,10.60
2022-12-29T14:36:26.133Z,10.50
2022-12-29T14:39:34.051Z,10.40
2022-12-29T14:42:24.350Z,10.30
2022-12-29T14:45:26.438Z,10.20
2022-12-29T14:48:37.871Z,10.10
2022-12-29T14:51:31.241Z,10.10
2022-12-29T14:54:37.156Z,10.00
2022-12-29T14:57:31.071Z,9.90
2022-12-29T15:00:20.453Z,9.90
2022-12-29T15:03:09.339Z,9.80
2022-12-29T15:05:57.755Z,9.70
2022-12-29T15:08:48.980Z,9.50
2022-12-29T15:11:46.087Z,9.40
2022-12-29T15:14:37.093Z,9.20
2022-12-29T15:17:26.298Z,9.10
2022-12-29T15:20:19.230Z,9.00
2022-12-29T15:23:11.735Z,8.90
2022-12-29T15:26:00.593Z,8.70
2022-12-29T15:28:48.709Z,8.50
2022-12-29T15:31:48.044Z,8.40
2022-12-29T15:34:35.684Z,8.30
2022-12-29T15:37:24.062Z,8.10
2022-12-29T15:40:23.455Z,8.10
2022-12-29T15:43:20.408Z,8.00
2022-12-29T15:46:07.965Z,7.90
2022-12-29T15:48:56.542Z,7.90
2022-12-29T15:51:44.754Z,7.90
2022-12-29T15:54:32.514Z,7.80
2022-12-29T15:57:24.065Z,7.80
2022-12-29T16:00:23.994Z,7.70
2022-12-29T16:03:15.191Z,7.70
2022-12-29T16:06:11.109Z,7.70
2022-12-29T16:08:58.978Z,7.70
2022-12-29T16:11:46.806Z,7.70
2022-12-29T16:14:35.365Z,7.80
2022-12-29T16:17:24.411Z,7.80
2022-12-29T16:20:18.102Z,7.80
2022-12-29T16:23:07.071Z,7.80
2022-12-29T16:25:55.725Z,7.70
2022-12-29T16:28:44.013Z,7.70
2022-12-29T16:31:35.450Z,7.70
2022-12-29T16:34:26.112Z,7.70
2022-12-29T16:37:29.243Z,7.70
2022-12-29T16:40:28.079Z,7.60
2022-12-29T16:43:21.474Z,7.50
2022-12-29T16:46:19.209Z,7.50
2022-12-29T16:49:11.163Z,7.40
2022-12-29T16:51:58.769Z,7.30
2022-12-29T16:54:50.318Z,7.30
2022-12-29T16:57:39.127Z,7.30
2022-12-29T17:00:27.300Z,7.20
2022-12-29T17:03:14.864Z,7.20
2022-12-29T17:06:02.589Z,7.20
2022-12-29T17:08:49.917Z,7.10
2022-12-29T17:12:00.504Z,7.10
2022-12-29T17:14:52.341Z,7.10
2022-12-29T17:17:40.974Z,7.00
2022-12-29T17:20:29.666Z,7.00
2022-12-29T17:23:22.744Z,6.90
2022-12-29T17:26:12.693Z,6.90
2022-12-29T17:28:59.840Z,6.90
2022-12-29T17:31:48.818Z,6.80
2022-12-29T17:34:35.968Z,6.80
2022-12-29T17:37:33.897Z,6.80
2022-12-29T17:40:22.224Z,6.80
2022-12-29T17:43:11.177Z,6.80
2022-12-29T17:45:59.396Z,6.70
2022-12-29T17:48:53.289Z,6.70
2022-12-29T17:51:41.282Z,6.70
2022-12-29T17:54:28.644Z,6.70
2022-12-29T17:57:16.209Z,6.70
2022-12-29T18:00:03.875Z,6.70
2022-12-29T18:02:59.900Z,6.60
2022-12-29T18:05:49.886Z,6.60
2022-12-29T18:08:37.283Z,6.60
2022-12-29T18:11:25.776Z,6.70
2022-12-29T18:14:13.621Z,6.80
2022-12-29T18:17:00.642Z,6.80
2022-12-29T18:19:48.023Z,6.90
2022-12-29T18:22:36.953Z,7.00
2022-12-29T18:25:26.529Z,7.10
2022-12-29T18:28:13.591Z,7.10
2022-12-29T18:31:01.917Z,7.20
2022-12-29T18:33:50.287Z,7.20
2022-12-29T18:36:37.534Z,7.20
2022-12-29T18:39:29.799Z,7.20
2022-12-29T18:42:18.672Z,7.20
2022-12-29T18:45:13.312Z,7.10
2022-12-29T18:48:00.418Z,7.10
2022-12-29T18:50:49.129Z,7.10
2022-12-29T18:53:37.995Z,7.20
2022-12-29T18:56:27.307Z,7.10
2022-12-29T18:59:14.457Z,7.10
2022-12-29T19:02:01.828Z,7.10
2022-12-29T19:04:53.088Z,7.10
2022-12-29T19:07:41.089Z,7.20
2022-12-29T19:10:28.365Z,7.20
2022-12-29T19:13:18.460Z,7.20
2022-12-29T19:16:06.670Z,7.20
2022-12-29T19:19:08.259Z,7.20
2022-12-29T19:21:58.148Z,7.20
2022-12-29T19:24:45.568Z,7.10
2022-12-29T19:27:33.804Z,7.10
2022-12-29T19:30:22.839Z,7.10
2022-12-29T19:33:10.888Z,7.10
2022-12-29T19:36:00.501Z,7.10
2022-12-29T19:38:47.817Z,7.10
2022-12-29T19:41:35.123Z,7.10
2022-12-29T19:44:22.845Z,7.00
2022-12-29T19:47:14.033Z,7.00
2022-12-29T19:50:01.729Z,7.00
2022-12-29T19:52:49.031Z,7.00
2022-12-29T19:55:36.418Z,7.00
2022-12-29T19:58:24.009Z,6.90
2022-12-29T20:01:12.547Z,6.90
2022-12-29T20:04:02.963Z,6.90
2022-12-29T20:06:49.883Z,6.90
2022-12-29T20:09:37.188Z,6.80
2022-12-29T20:12:29.150Z,6.80
2022-12-29T20:15:16.917Z,6.80
2022-12-29T20:18:13.773Z,6.70
2022-12-29T20:21:06.303Z,6.70
2022-12-29T20:23:54.081Z,6.60
2022-12-29T20:26:41.367Z,6.50
2022-12-29T20:29:28.542Z,6.40
2022-12-29T20:32:16.850Z,6.40
2022-12-29T20:35:04.001Z,6.30
2022-12-29T20:37:52.690Z,6.30
2022-12-29T20:40:46.177Z,6.20
2022-12-29T20:43:33.864Z,6.20
2022-12-29T20:46:25.253Z,6.10
2022-12-29T20:49:15.975Z,6.10
2022-12-29T20:52:06.985Z,6.10
2022-12-29T20:54:56.040Z,6.00
2022-12-29T20:58:22.563Z,6.00
2022-12-29T21:00:50.790Z,6.00
2022-12-29T21:03:38.202Z,5.90
2022-12-29T21:06:25.295Z,5.90
2022-12-29T21:09:12.991Z,5.80
2022-12-29T21:12:02.587Z,5.80
2022-12-29T21:14:49.554Z,5.70
2022-12-29T21:17:37.079Z,5.70
2022-12-29T21:20:30.298Z,5.70
2022-12-29T21:23:17.568Z,5.70
2022-12-29T21:26:07.565Z,5.60
2022-12-29T21:28:56.821Z,5.60
2022-12-29T21:31:45.922Z,5.60
2022-12-29T21:34:34.652Z,5.60
2022-12-29T21:37:23.876Z,5.70
2022-12-29T21:40:11.899Z,5.60
2022-12-29T21:42:59.229Z,5.70
2022-12-29T21:45:51.772Z,5.60
2022-12-29T21:48:38.828Z,5.60
2022-12-29T21:51:43.572Z,5.50
2022-12-29T21:54:48.621Z,5.40
2022-12-29T21:57:53.325Z,5.30
2022-12-29T22:00:57.992Z,5.30
2022-12-29T22:04:04.123Z,5.30
2022-12-29T22:07:08.953Z,5.20
2022-12-29T22:10:13.636Z,5.20
2022-12-29T22:13:01.725Z,5.10
2022-12-29T22:15:49.156Z,5.10
2022-12-29T22:18:36.717Z,5.00
2022-12-29T22:21:25.448Z,5.00
2022-12-29T22:24:12.537Z,4.90
2022-12-29T22:26:59.796Z,4.90
2022-12-29T22:29:47.574Z,4.80
2022-12-29T22:32:34.984Z,4.70
2022-12-29T22:35:22.274Z,4.70
2022-12-29T22:38:10.821Z,4.70
2022-12-29T22:40:59.362Z,4.60
2022-12-29T22:43:46.879Z,4.60
2022-12-29T22:46:34.179Z,4.60
2022-12-29T22:49:21.544Z,4.60
2022-12-29T22:52:08.749Z,4.70
2022-12-29T22:55:01.663Z,4.90
2022-12-29T22:57:52.183Z,5.00
2022-12-29T23:00:39.595Z,5.10
2022-12-29T23:03:27.294Z,5.30
2022-12-29T23:06:16.159Z,5.40
2022-12-29T23:09:05.225Z,5.40
2022-12-29T23:11:53.846Z,5.50
2022-12-29T23:14:40.954Z,5.50
2022-12-29T23:17:28.555Z,5.50
2022-12-29T23:20:15.845Z,5.60
2022-12-29T23:23:03.374Z,5.60
2022-12-29T23:25:50.934Z,5.70
2022-12-29T23:28:42.686Z,5.80
2022-12-29T23:31:30.500Z,5.80
2022-12-29T23:34:18.496Z,5.80
2022-12-29T23:37:05.949Z,5.70
2022-12-29T23:39:52.837Z,5.70
2022-12-29T23:42:40.368Z,5.60
2022-12-29T23:45:29.344Z,5.60
2022-12-29T23:48:16.729Z,5.50
2022-12-29T23:51:05.500Z,5.40
2022-12-29T23:53:52.995Z,5.30
2022-12-29T23:56:40.107Z,5.20
2022-12-29T23:59:27.465Z,5.10
